createdAt,value
2022-07-25T00:00:50.733Z,6.92
2022-07-25T00:03:21.085Z,6.00
2022-07-25T00:05:50.872Z,6.90
2022-07-25T00:08:20.637Z,6.70
2022-07-25T00:10:50.487Z,6.93
2022-07-25T00:13:20.252Z,7.37
2022-07-25T00:15:50.134Z,6.93
2022-07-25T00:18:19.897Z,7.33
2022-07-25T00:20:49.839Z,7.57
2022-07-25T00:23:19.607Z,7.03
2022-07-25T00:25:49.694Z,7.70
2022-07-25T00:28:19.476Z,7.47
2022-07-25T00:30:49.926Z,7.93
2022-07-25T00:33:19.727Z,7.50
2022-07-25T00:35:49.495Z,8.67
2022-07-25T00:38:19.281Z,8.00
2022-07-25T00:40:54.589Z,9.03
2022-07-25T00:43:20.591Z,8.60
2022-07-25T00:45:50.371Z,8.90
2022-07-25T00:48:20.052Z,9.20
2022-07-25T00:50:50.145Z,8.78
2022-07-25T00:53:20.080Z,9.70
2022-07-25T00:55:49.988Z,9.60
2022-07-25T00:58:19.773Z,9.07
2022-07-25T01:00:49.818Z,9.33
2022-07-25T01:03:19.775Z,10.37
2022-07-25T01:05:53.717Z,9.90
2022-07-25T01:08:23.063Z,10.40
2022-07-25T01:10:52.908Z,10.93
2022-07-25T01:13:22.753Z,9.87
2022-07-25T01:15:52.640Z,10.90
2022-07-25T01:18:22.480Z,11.07
2022-07-25T01:20:52.270Z,11.57
2022-07-25T01:23:22.063Z,11.43
2022-07-25T01:25:51.566Z,11.30
2022-07-25T01:28:21.477Z,11.70
2022-07-25T01:30:51.636Z,11.53
2022-07-25T01:33:22.801Z,11.43
2022-07-25T01:35:52.822Z,11.33
2022-07-25T01:38:22.602Z,11.17
2022-07-25T01:40:52.661Z,11.57
2022-07-25T01:43:22.138Z,12.40
2022-07-25T01:45:52.034Z,11.33
2022-07-25T01:48:21.572Z,11.53
2022-07-25T01:50:51.379Z,12.30
2022-07-25T01:53:22.122Z,12.13
2022-07-25T01:55:53.365Z,12.27
2022-07-25T01:58:24.268Z,12.60
2022-07-25T02:00:55.190Z,12.47
2022-07-25T02:03:31.035Z,13.20
2022-07-25T02:06:03.728Z,12.93
2022-07-25T02:10:54.383Z,12.55
2022-07-25T02:13:25.046Z,12.63
2022-07-25T02:15:55.004Z,13.60
2022-07-25T02:18:24.777Z,12.60
2022-07-25T02:20:54.657Z,12.20
2022-07-25T02:23:24.731Z,13.13
2022-07-25T02:25:54.959Z,12.33
2022-07-25T02:28:24.812Z,13.60
2022-07-25T02:30:54.433Z,12.75
2022-07-25T02:33:24.490Z,12.60
2022-07-25T02:35:54.275Z,13.47
2022-07-25T02:38:24.056Z,12.63
2022-07-25T02:40:54.170Z,12.63
2022-07-25T02:43:23.735Z,12.68
2022-07-25T02:45:53.646Z,13.17
2022-07-25T02:48:23.425Z,13.27
2022-07-25T02:50:53.291Z,13.40
2022-07-25T02:53:40.354Z,13.33
2022-07-25T02:55:55.072Z,13.32
2022-07-25T02:58:26.522Z,13.78
2022-07-25T03:00:56.379Z,12.93
2022-07-25T03:03:26.170Z,13.10
2022-07-25T03:05:56.634Z,14.30
2022-07-25T03:08:26.987Z,14.25
2022-07-25T03:10:57.073Z,13.28
2022-07-25T03:13:26.856Z,13.97
2022-07-25T03:15:56.949Z,14.05
2022-07-25T03:18:26.828Z,14.10
2022-07-25T03:20:56.595Z,14.27
2022-07-25T03:23:28.127Z,14.23
2022-07-25T03:25:58.133Z,13.97
2022-07-25T03:28:27.927Z,14.00
2022-07-25T03:30:58.053Z,15.07
2022-07-25T03:33:28.140Z,14.60
2022-07-25T03:35:57.927Z,14.13
2022-07-25T03:38:27.413Z,14.53
2022-07-25T03:40:57.191Z,13.83
2022-07-25T03:43:26.983Z,14.23
2022-07-25T03:45:56.938Z,13.73
2022-07-25T03:48:26.591Z,14.33
2022-07-25T03:50:58.876Z,14.20
2022-07-25T03:53:29.420Z,14.67
2022-07-25T03:55:59.277Z,13.33
2022-07-25T03:58:29.052Z,13.53
2022-07-25T04:00:58.872Z,12.80
2022-07-25T04:03:28.450Z,12.80
2022-07-25T04:05:58.241Z,13.80
2022-07-25T04:08:28.032Z,14.13
2022-07-25T04:10:59.525Z,12.20
2022-07-25T04:13:29.771Z,12.27
2022-07-25T04:15:59.566Z,13.13
2022-07-25T04:18:29.527Z,12.58
2022-07-25T04:21:01.438Z,12.37
2022-07-25T04:23:31.698Z,12.80
2022-07-25T04:26:01.942Z,11.93
2022-07-25T04:28:32.502Z,12.50
2022-07-25T04:31:02.281Z,12.60
2022-07-25T04:33:32.368Z,12.78
2022-07-25T04:36:02.149Z,11.67
2022-07-25T04:38:32.083Z,11.70
2022-07-25T04:41:04.494Z,12.10
2022-07-25T04:43:34.290Z,12.77
2022-07-25T04:46:06.624Z,11.97
2022-07-25T04:48:36.635Z,11.83
2022-07-25T04:51:07.540Z,12.20
2022-07-25T04:53:37.428Z,12.17
2022-07-25T04:56:08.489Z,12.20
2022-07-25T04:58:38.533Z,10.80
2022-07-25T05:01:08.424Z,10.93
2022-07-25T05:03:38.186Z,11.60
2022-07-25T05:06:08.359Z,11.10
2022-07-25T05:08:38.138Z,10.97
2022-07-25T05:11:07.997Z,11.00
2022-07-25T05:13:37.776Z,10.73
2022-07-25T05:16:09.452Z,11.90
2022-07-25T05:18:38.988Z,11.10
2022-07-25T05:21:14.454Z,10.70
2022-07-25T05:23:44.237Z,10.60
2022-07-25T05:26:14.805Z,10.76
2022-07-25T05:28:44.619Z,10.57
2022-07-25T05:31:14.590Z,10.93
2022-07-25T05:33:44.653Z,10.75
2022-07-25T05:36:14.850Z,9.52
2022-07-25T05:38:44.630Z,10.53
2022-07-25T05:41:14.423Z,9.87
2022-07-25T05:43:46.085Z,10.30
2022-07-25T05:46:16.602Z,9.93
2022-07-25T05:48:47.354Z,9.95
2022-07-25T05:51:17.167Z,8.87
2022-07-25T05:53:47.228Z,8.67
2022-07-25T05:56:16.714Z,8.38
2022-07-25T05:58:46.554Z,8.13
2022-07-25T06:01:18.229Z,8.93
2022-07-25T06:03:48.014Z,7.23
2022-07-25T06:06:17.554Z,8.40
2022-07-25T06:08:47.329Z,8.63
2022-07-25T06:11:17.571Z,9.40
2022-07-25T06:13:47.720Z,8.15
2022-07-25T06:16:17.655Z,8.08
2022-07-25T06:18:47.505Z,8.20
2022-07-25T06:21:17.836Z,7.57
2022-07-25T06:23:47.615Z,8.90
2022-07-25T06:26:18.211Z,8.18
2022-07-25T06:28:47.979Z,8.63
2022-07-25T06:31:17.894Z,7.83
2022-07-25T06:33:47.754Z,9.50
2022-07-25T06:36:17.532Z,8.10
2022-07-25T06:38:47.312Z,8.40
2022-07-25T06:41:17.150Z,8.20
2022-07-25T06:43:47.223Z,8.40
2022-07-25T06:46:16.746Z,8.66
2022-07-25T06:48:46.864Z,7.73
2022-07-25T06:51:16.765Z,7.70
2022-07-25T06:53:46.535Z,7.63
2022-07-25T06:56:17.824Z,8.06
2022-07-25T06:58:47.773Z,7.37
2022-07-25T07:01:17.734Z,7.20
2022-07-25T07:03:48.492Z,7.50
2022-07-25T07:06:18.370Z,7.45
2022-07-25T07:08:48.139Z,6.93
2022-07-25T07:11:17.906Z,6.73
2022-07-25T07:13:47.673Z,6.57
2022-07-25T07:16:17.676Z,6.86
2022-07-25T07:18:49.542Z,7.23
2022-07-25T07:21:21.507Z,6.90
2022-07-25T07:23:53.497Z,6.77
2022-07-25T07:26:22.228Z,6.53
2022-07-25T07:28:53.797Z,6.33
2022-07-25T07:31:23.620Z,6.67
2022-07-25T07:33:53.423Z,6.67
2022-07-25T07:36:23.667Z,5.35
2022-07-25T07:38:53.442Z,5.97
2022-07-25T07:41:23.237Z,5.60
2022-07-25T07:43:53.316Z,11.03
2022-07-25T07:46:23.116Z,7.60
2022-07-25T07:48:53.313Z,8.80
2022-07-25T07:51:23.076Z,7.00
2022-07-25T07:54:10.527Z,7.67
2022-07-25T07:56:40.293Z,4.20
2022-07-25T07:59:10.725Z,3.40
2022-07-25T08:01:40.754Z,2.80
2022-07-25T08:04:11.663Z,3.10
2022-07-25T08:06:42.850Z,2.43
2022-07-25T08:09:12.636Z,2.43
2022-07-25T08:11:42.401Z,2.30
2022-07-25T08:14:12.342Z,1.77
2022-07-25T08:16:42.240Z,1.53
2022-07-25T08:19:11.827Z,1.20
2022-07-25T08:21:41.595Z,1.10
2022-07-25T08:24:11.481Z,1.62
2022-07-25T08:26:41.262Z,1.37
2022-07-25T08:29:19.223Z,1.60
2022-07-25T08:31:42.834Z,1.80
2022-07-25T08:34:12.495Z,1.40
2022-07-25T08:36:42.435Z,1.10
2022-07-25T08:39:11.911Z,0.80
2022-07-25T08:41:43.110Z,0.97
2022-07-25T08:44:15.050Z,1.07
2022-07-25T08:46:46.163Z,1.30
2022-07-25T08:49:16.056Z,1.10
2022-07-25T08:51:46.672Z,1.00
2022-07-25T08:54:19.269Z,0.87
2022-07-25T08:56:48.744Z,0.90
2022-07-25T08:59:18.284Z,0.70
2022-07-25T09:01:48.188Z,0.60
2022-07-25T09:04:18.441Z,1.10
2022-07-25T09:06:52.750Z,0.70
2022-07-25T09:09:33.279Z,0.77
2022-07-25T09:12:03.669Z,0.70
2022-07-25T09:14:44.425Z,0.73
2022-07-25T09:17:22.395Z,0.90
2022-07-25T09:19:54.390Z,0.90
2022-07-25T09:22:24.027Z,0.60
2022-07-25T09:24:53.807Z,0.73
2022-07-25T09:27:23.599Z,1.00
2022-07-25T09:29:53.174Z,0.90
2022-07-25T09:32:25.274Z,0.80
2022-07-25T09:34:55.050Z,0.90
2022-07-25T09:37:27.380Z,0.70
2022-07-25T09:39:57.443Z,0.50
2022-07-25T09:42:29.426Z,0.50
2022-07-25T09:45:07.533Z,0.80
2022-07-25T09:47:39.022Z,0.85
2022-07-25T09:50:09.159Z,1.00
2022-07-25T09:52:39.202Z,1.13
2022-07-25T09:55:10.864Z,1.00
2022-07-25T09:57:41.184Z,1.30
2022-07-25T10:00:13.096Z,1.20
2022-07-25T10:02:57.291Z,1.17
2022-07-25T10:05:41.166Z,1.40
2022-07-25T10:08:11.559Z,1.10
2022-07-25T10:10:43.276Z,1.23
2022-07-25T10:13:18.022Z,1.50
2022-07-25T10:15:50.835Z,1.43
2022-07-25T10:18:22.943Z,1.05
2022-07-25T10:20:56.096Z,1.33
2022-07-25T10:23:28.687Z,1.47
2022-07-25T10:26:07.162Z,1.00
2022-07-25T10:28:44.883Z,1.30
2022-07-25T10:31:29.483Z,1.13
2022-07-25T10:34:07.870Z,1.10
2022-07-25T10:36:54.168Z,1.00
2022-07-25T10:39:23.980Z,1.17
2022-07-25T10:42:02.783Z,1.10
2022-07-25T10:44:43.734Z,1.20
2022-07-25T10:47:15.443Z,1.10
2022-07-25T10:52:21.251Z,1.30
2022-07-25T10:54:56.418Z,1.30
2022-07-25T10:57:31.311Z,0.93
2022-07-25T11:00:06.409Z,0.90
2022-07-25T11:02:36.713Z,1.30
2022-07-25T11:05:08.436Z,0.97
2022-07-25T11:07:37.932Z,1.35
2022-07-25T11:10:10.438Z,1.40
2022-07-25T11:12:40.248Z,1.47
2022-07-25T11:15:13.360Z,1.20
2022-07-25T11:17:44.889Z,1.50
2022-07-25T11:20:19.541Z,1.55
2022-07-25T11:22:54.163Z,1.43
2022-07-25T11:25:24.392Z,1.20
2022-07-25T11:27:58.863Z,1.57
2022-07-25T11:30:29.576Z,1.65
2022-07-25T11:33:04.217Z,1.90
2022-07-25T11:35:34.673Z,1.87
2022-07-25T11:38:06.341Z,1.62
2022-07-25T11:40:39.285Z,1.93
2022-07-25T11:43:09.061Z,1.80
2022-07-25T11:45:39.896Z,1.73
2022-07-25T11:48:13.320Z,1.80
2022-07-25T11:50:45.534Z,1.87
2022-07-25T11:53:18.445Z,2.13
2022-07-25T11:55:48.218Z,1.90
2022-07-25T11:58:19.433Z,1.90
2022-07-25T12:00:50.534Z,1.67
2022-07-25T12:03:23.726Z,1.50
2022-07-25T12:05:53.644Z,1.83
2022-07-25T12:08:23.809Z,2.30
2022-07-25T12:10:55.556Z,3.10
2022-07-25T12:13:31.116Z,1.77
2022-07-25T12:16:01.262Z,1.70
2022-07-25T12:18:31.025Z,1.83
2022-07-25T12:21:00.793Z,2.57
2022-07-25T12:23:30.564Z,2.03
2022-07-25T12:26:00.407Z,1.90
2022-07-25T12:28:30.650Z,1.83
2022-07-25T12:31:00.535Z,1.87
2022-07-25T12:33:30.174Z,1.95
2022-07-25T12:36:06.578Z,2.00
2022-07-25T12:38:32.911Z,1.83
2022-07-25T12:41:02.693Z,1.87
2022-07-25T12:43:32.461Z,2.00
2022-07-25T12:46:02.401Z,2.13
2022-07-25T12:48:32.305Z,2.83
2022-07-25T12:51:02.219Z,2.60
2022-07-25T12:53:31.996Z,2.40
2022-07-25T12:56:01.780Z,2.73
2022-07-25T12:58:31.571Z,2.37
2022-07-25T13:01:02.278Z,2.80
2022-07-25T13:03:32.956Z,3.10
2022-07-25T13:06:02.725Z,2.77
2022-07-25T13:08:32.624Z,2.40
2022-07-25T13:11:02.401Z,3.00
2022-07-25T13:13:32.181Z,2.50
2022-07-25T13:16:02.262Z,2.40
2022-07-25T13:18:32.543Z,2.83
2022-07-25T13:21:03.485Z,2.73
2022-07-25T13:23:33.331Z,2.80
2022-07-25T13:26:03.343Z,2.57
2022-07-25T13:28:33.261Z,2.63
2022-07-25T13:31:04.728Z,2.30
2022-07-25T13:33:35.354Z,2.37
2022-07-25T13:36:07.029Z,2.30
2022-07-25T13:38:38.678Z,2.33
2022-07-25T13:41:10.055Z,2.37
2022-07-25T13:43:41.916Z,2.37
2022-07-25T13:46:12.420Z,2.40
2022-07-25T13:48:42.382Z,2.47
2022-07-25T13:51:12.210Z,2.67
2022-07-25T13:53:42.139Z,2.30
2022-07-25T13:56:14.687Z,2.23
2022-07-25T13:58:44.426Z,2.25
2022-07-25T14:01:16.014Z,2.60
2022-07-25T14:03:45.696Z,2.30
2022-07-25T14:06:15.524Z,2.20
2022-07-25T14:08:45.366Z,2.40
2022-07-25T14:11:15.211Z,2.30
2022-07-25T14:13:45.428Z,1.80
2022-07-25T14:16:16.594Z,1.80
2022-07-25T14:18:46.673Z,1.90
2022-07-25T14:21:16.447Z,1.90
2022-07-25T14:23:46.217Z,2.20
2022-07-25T14:26:15.989Z,1.77
2022-07-25T14:28:45.838Z,1.97
2022-07-25T14:31:15.807Z,1.90
2022-07-25T14:33:45.314Z,2.40
2022-07-25T14:36:15.084Z,1.57
2022-07-25T14:38:46.635Z,1.73
2022-07-25T14:41:16.791Z,2.00
2022-07-25T14:43:46.862Z,2.15
2022-07-25T14:46:16.932Z,1.95
2022-07-25T14:48:47.446Z,1.60
2022-07-25T14:51:17.738Z,1.60
2022-07-25T14:53:52.780Z,2.40
2022-07-25T14:56:19.387Z,2.37
2022-07-25T14:58:49.186Z,1.93
2022-07-25T15:01:20.815Z,1.67
2022-07-25T15:03:51.066Z,1.67
2022-07-25T15:06:24.564Z,1.77
2022-07-25T15:08:52.476Z,2.00
2022-07-25T15:11:23.281Z,1.40
2022-07-25T15:13:53.126Z,1.40
2022-07-25T15:16:23.378Z,1.70
2022-07-25T15:19:15.062Z,1.60
2022-07-25T15:21:25.063Z,1.60
2022-07-25T15:23:56.530Z,1.63
2022-07-25T15:26:26.756Z,1.57
2022-07-25T15:28:56.339Z,1.35
2022-07-25T15:31:26.517Z,1.73
2022-07-25T15:33:56.398Z,1.20
2022-07-25T15:36:29.560Z,1.57
2022-07-25T15:38:57.706Z,1.53
2022-07-25T15:41:27.472Z,1.50
2022-07-25T15:43:57.237Z,1.43
2022-07-25T15:46:28.862Z,1.30
2022-07-25T15:48:58.930Z,1.53
2022-07-25T15:51:28.691Z,1.27
2022-07-25T15:53:58.460Z,1.23
2022-07-25T15:56:28.021Z,1.45
2022-07-25T15:58:57.816Z,1.37
2022-07-25T16:01:27.760Z,1.10
2022-07-25T16:04:00.113Z,1.00
2022-07-25T16:06:30.843Z,1.10
2022-07-25T16:09:00.983Z,1.27
2022-07-25T16:11:30.461Z,1.30
2022-07-25T16:14:00.235Z,1.27
2022-07-25T16:16:29.825Z,1.40
2022-07-25T16:18:59.594Z,1.30
2022-07-25T16:21:29.441Z,1.23
2022-07-25T16:23:59.211Z,1.20
2022-07-25T16:26:29.059Z,1.07
2022-07-25T16:29:00.115Z,1.47
2022-07-25T16:31:29.827Z,1.40
2022-07-25T16:33:59.695Z,1.50
2022-07-25T16:36:29.548Z,1.33
2022-07-25T16:38:59.688Z,1.05
2022-07-25T16:41:29.481Z,1.00
2022-07-25T16:44:00.287Z,1.37
2022-07-25T16:46:30.209Z,1.27
2022-07-25T16:49:00.283Z,1.13
2022-07-25T16:51:34.119Z,1.43
2022-07-25T16:54:02.082Z,1.10
2022-07-25T16:56:32.108Z,1.27
2022-07-25T16:59:01.878Z,1.23
2022-07-25T17:01:32.362Z,0.98
2022-07-25T17:04:02.455Z,1.20
2022-07-25T17:06:32.581Z,1.02
2022-07-25T17:09:02.649Z,1.17
2022-07-25T17:11:34.355Z,1.23
2022-07-25T17:14:06.402Z,1.12
2022-07-25T17:16:36.191Z,1.17
2022-07-25T17:19:06.301Z,0.90
2022-07-25T17:21:36.240Z,1.23
2022-07-25T17:24:08.443Z,1.40
2022-07-25T17:26:38.347Z,1.37
2022-07-25T17:29:09.433Z,1.40
2022-07-25T17:31:39.500Z,1.20
2022-07-25T17:34:10.089Z,1.00
2022-07-25T17:36:40.548Z,1.10
2022-07-25T17:39:10.996Z,1.20
2022-07-25T17:41:41.000Z,1.33
2022-07-25T17:44:12.319Z,0.90
2022-07-25T17:46:42.513Z,1.20
2022-07-25T17:49:12.689Z,1.10
2022-07-25T17:51:42.549Z,2.17
2022-07-25T17:54:12.276Z,0.90
2022-07-25T17:56:42.477Z,0.80
2022-07-25T17:59:12.424Z,1.10
2022-07-25T18:01:42.242Z,1.13
2022-07-25T18:04:12.056Z,0.83
2022-07-25T18:06:41.872Z,1.13
2022-07-25T18:09:11.720Z,1.07
2022-07-25T18:11:41.194Z,1.05
2022-07-25T18:14:11.610Z,0.90
2022-07-25T18:16:41.352Z,1.10
2022-07-25T18:19:11.200Z,1.13
2022-07-25T18:21:41.025Z,1.00
2022-07-25T18:24:11.878Z,1.20
2022-07-25T18:26:42.465Z,0.80
2022-07-25T18:29:12.257Z,1.17
2022-07-25T18:31:42.129Z,1.40
2022-07-25T18:34:12.052Z,1.23
2022-07-25T18:36:42.848Z,1.00
2022-07-25T18:39:12.621Z,1.40
2022-07-25T18:41:42.566Z,1.40
2022-07-25T18:44:12.250Z,1.20
2022-07-25T18:46:45.897Z,0.87
2022-07-25T18:49:15.826Z,1.40
2022-07-25T18:51:46.095Z,1.30
2022-07-25T18:54:15.940Z,1.12
2022-07-25T18:56:45.791Z,1.27
2022-07-25T18:59:17.408Z,1.47
2022-07-25T19:01:47.245Z,1.60
2022-07-25T19:04:17.444Z,1.10
2022-07-25T19:06:47.367Z,1.93
2022-07-25T19:09:17.931Z,1.40
2022-07-25T19:11:48.173Z,2.08
2022-07-25T19:14:17.954Z,1.10
2022-07-25T19:16:47.774Z,1.90
2022-07-25T19:19:17.649Z,1.20
2022-07-25T19:21:47.434Z,1.60
2022-07-25T19:24:17.140Z,1.07
2022-07-25T19:26:48.073Z,1.33
2022-07-25T19:29:18.556Z,1.73
2022-07-25T19:31:48.357Z,1.60
2022-07-25T19:34:18.125Z,1.20
2022-07-25T19:36:47.903Z,1.40
2022-07-25T19:39:17.667Z,1.43
2022-07-25T19:41:47.525Z,2.10
2022-07-25T19:44:17.631Z,1.20
2022-07-25T19:46:49.457Z,1.70
2022-07-25T19:49:19.303Z,1.60
2022-07-25T19:51:49.152Z,1.97
2022-07-25T19:54:19.024Z,1.62
2022-07-25T19:56:48.804Z,1.80
2022-07-25T19:59:18.586Z,1.20
2022-07-25T20:01:50.195Z,1.25
2022-07-25T20:04:19.969Z,1.60
2022-07-25T20:06:52.137Z,1.30
2022-07-25T20:09:22.453Z,1.57
2022-07-25T20:11:52.424Z,1.53
2022-07-25T20:14:21.895Z,1.30
2022-07-25T20:16:51.844Z,1.33
2022-07-25T20:19:21.755Z,1.20
2022-07-25T20:21:52.110Z,1.12
2022-07-25T20:24:22.065Z,1.40
2022-07-25T20:26:51.892Z,1.63
2022-07-25T20:29:21.906Z,1.20
2022-07-25T20:31:53.390Z,1.53
2022-07-25T20:34:23.650Z,1.63
2022-07-25T20:36:53.791Z,1.50
2022-07-25T20:39:23.626Z,1.40
2022-07-25T20:41:53.561Z,1.80
2022-07-25T20:44:23.109Z,1.70
2022-07-25T20:46:52.880Z,1.40
2022-07-25T20:49:22.749Z,1.30
2022-07-25T20:51:54.843Z,1.40
2022-07-25T20:54:24.831Z,1.60
2022-07-25T20:56:54.685Z,1.87
2022-07-25T20:59:24.451Z,1.73
2022-07-25T21:01:54.286Z,1.50
2022-07-25T21:04:24.484Z,1.75
2022-07-25T21:06:56.780Z,1.40
2022-07-25T21:09:30.940Z,1.53
2022-07-25T21:11:58.352Z,1.60
2022-07-25T21:14:29.047Z,2.03
2022-07-25T21:16:58.883Z,2.13
2022-07-25T21:19:28.684Z,1.80
2022-07-25T21:21:58.460Z,2.03
2022-07-25T21:24:28.120Z,2.22
2022-07-25T21:26:57.857Z,1.47
2022-07-25T21:29:27.940Z,2.00
2022-07-25T21:31:57.894Z,1.80
2022-07-25T21:34:27.692Z,1.90
2022-07-25T21:36:57.474Z,2.03
2022-07-25T21:39:27.720Z,1.50
2022-07-25T21:41:57.631Z,1.63
2022-07-25T21:44:27.659Z,1.27
2022-07-25T21:46:57.511Z,1.50
2022-07-25T21:49:45.188Z,1.53
2022-07-25T21:52:15.538Z,1.80
2022-07-25T21:54:46.249Z,1.40
2022-07-25T21:57:16.355Z,1.23
2022-07-25T21:59:46.763Z,1.33
2022-07-25T22:02:16.356Z,1.50
2022-07-25T22:04:46.262Z,1.47
2022-07-25T22:07:16.119Z,2.17
2022-07-25T22:09:46.137Z,1.50
2022-07-25T22:12:16.262Z,1.20
2022-07-25T22:14:46.038Z,1.70
2022-07-25T22:17:15.877Z,2.03
2022-07-25T22:19:45.925Z,1.10
2022-07-25T22:22:16.015Z,1.37
2022-07-25T22:24:46.704Z,1.30
2022-07-25T22:27:16.792Z,1.40
2022-07-25T22:29:46.642Z,1.70
2022-07-25T22:32:16.476Z,1.23
2022-07-25T22:34:46.251Z,1.67
2022-07-25T22:37:16.934Z,1.50
2022-07-25T22:39:46.687Z,1.50
2022-07-25T22:42:16.423Z,1.20
2022-07-25T22:44:46.240Z,1.23
2022-07-25T22:47:16.238Z,1.53
2022-07-25T22:49:46.004Z,1.40
2022-07-25T22:52:15.558Z,1.50
2022-07-25T22:54:45.623Z,1.80
2022-07-25T22:57:15.421Z,1.10
2022-07-25T22:59:46.832Z,1.07
2022-07-25T23:02:16.541Z,1.60
2022-07-25T23:04:46.414Z,1.20
2022-07-25T23:07:16.238Z,0.87
2022-07-25T23:09:46.013Z,1.13
2022-07-25T23:12:15.567Z,1.62
2022-07-25T23:14:45.611Z,1.05
2022-07-25T23:17:18.324Z,1.10
2022-07-25T23:19:53.138Z,1.30
2022-07-25T23:22:25.369Z,1.03
2022-07-25T23:24:56.076Z,1.40
2022-07-25T23:27:26.784Z,1.87
2022-07-25T23:29:56.565Z,1.13
2022-07-25T23:32:26.320Z,1.17
2022-07-25T23:34:56.124Z,1.43
2022-07-25T23:37:25.971Z,1.53
2022-07-25T23:39:56.111Z,1.73
2022-07-25T23:42:25.655Z,1.40
2022-07-25T23:44:55.152Z,1.60
2022-07-25T23:47:36.906Z,1.33
2022-07-25T23:49:56.782Z,2.00
2022-07-25T23:52:26.448Z,1.77
2022-07-25T23:54:56.247Z,1.20
2022-07-25T23:57:26.085Z,1.80
2022-07-25T23:59:55.861Z,1.77
